Terminal Aerodrome Forecast
Issued by NWS

Home | Current Version | Previous Version | Text Only | Print | Product List | Glossary On
Versions: 1 2 3 4 5 6 7 8 9 10 11 12 13 14 15 16 17 18 19
000
FTUS43 KBIS 020520
TAFJMS
TAF
KJMS 020520Z 0206/0306 15005KT P6SM SKC
     FM020800 18004KT 3SM BR SKC
      TEMPO 0209/0213 1/2SM FG
     FM021700 15012G20KT P6SM SKC
     FM022300 15009KT P6SM FEW100=

USA.gov is the U.S. government's official web portal to all federal, state and local government web resources and services.